AKJ251 VOMM-VOHS
Flight info
| Callsign | AKJ251 |
|---|---|
| Flight time | 0h 52m |
| Altitude | 34000 |
| Route | KAMGU2A KAMGU W20 LEDOB LEDOB8 |
| Aircraft | B38M/M-SDE1FGHILORVWXY/HB1 |
Departure
| Time | 2026-04-25 12:50 |
|---|---|
| Airport | Chennai International Airport (VOMM) |
Arrival
| Time | 2026-04-25 13:42 |
|---|---|
| Airport | Rajiv Gandhi International Airport (VOHS) |
| Time | Latitude | Longitude | Altitude | Speed | Heading |
|---|---|---|---|---|---|
| 2026-04-25 12:23 | 12.98492 | 80.16672 | 58 ft | 0 kts | 159° |
| 2026-04-25 12:42 | 12.98494 | 80.16671 | 58 ft | 1 kts | 159° |
| 2026-04-25 12:42 | 12.98504 | 80.16667 | 52 ft | 3 kts | 161° |
| 2026-04-25 12:42 | 12.98530 | 80.16661 | 53 ft | 3 kts | 178° |
| 2026-04-25 12:42 | 12.98548 | 80.16664 | 52 ft | 3 kts | 212° |
| 2026-04-25 12:43 | 12.98556 | 80.16672 | 50 ft | 1 kts | 249° |
| 2026-04-25 12:43 | 12.98557 | 80.16674 | 50 ft | 1 kts | 250° |
| 2026-04-25 12:45 | 12.98556 | 80.16672 | 50 ft | 1 kts | 250° |
| 2026-04-25 12:45 | 12.98537 | 80.16620 | 55 ft | 7 kts | 249° |
| 2026-04-25 12:46 | 12.98516 | 80.16565 | 54 ft | 10 kts | 249° |
| 2026-04-25 12:46 | 12.98488 | 80.16491 | 57 ft | 13 kts | 249° |
| 2026-04-25 12:46 | 12.98454 | 80.16400 | 52 ft | 15 kts | 249° |
| 2026-04-25 12:46 | 12.98416 | 80.16289 | 53 ft | 18 kts | 250° |
| 2026-04-25 12:47 | 12.98371 | 80.16163 | 55 ft | 20 kts | 249° |
| 2026-04-25 12:47 | 12.98319 | 80.16024 | 54 ft | 20 kts | 249° |
| 2026-04-25 12:47 | 12.98286 | 80.15933 | 58 ft | 11 kts | 263° |
| 2026-04-25 12:47 | 12.98306 | 80.15849 | 55 ft | 14 kts | 287° |
| 2026-04-25 12:48 | 12.98336 | 80.15747 | 55 ft | 16 kts | 286° |
| 2026-04-25 12:48 | 12.98365 | 80.15630 | 58 ft | 18 kts | 283° |
| 2026-04-25 12:48 | 12.98401 | 80.15495 | 58 ft | 21 kts | 285° |
| 2026-04-25 12:48 | 12.98461 | 80.15449 | 59 ft | 10 kts | 12° |
| 2026-04-25 12:49 | 12.98488 | 80.15486 | 59 ft | 0 kts | 70° |
| 2026-04-25 12:49 | 12.98492 | 80.15496 | 59 ft | 5 kts | 70° |
| 2026-04-25 12:49 | 12.98549 | 80.15653 | 52 ft | 55 kts | 69° |
| 2026-04-25 12:50 | 12.98770 | 80.16244 | 57 ft | 123 kts | 69° |
| 2026-04-25 12:50 | 12.99160 | 80.17248 | 113 ft | 174 kts | 70° |
| 2026-04-25 12:50 | 12.99683 | 80.18436 | 716 ft | 191 kts | 70° |
| 2026-04-25 12:50 | 13.00182 | 80.19689 | 1764 ft | 188 kts | 74° |
| 2026-04-25 12:51 | 13.00928 | 80.20904 | 2442 ft | 220 kts | 39° |
| 2026-04-25 12:51 | 13.02428 | 80.21406 | 3231 ft | 241 kts | 358° |
| 2026-04-25 12:51 | 13.04085 | 80.20903 | 3993 ft | 258 kts | 337° |
| 2026-04-25 12:51 | 13.05825 | 80.20205 | 4853 ft | 276 kts | 343° |
| 2026-04-25 12:52 | 13.07708 | 80.19536 | 5536 ft | 309 kts | 343° |
| 2026-04-25 12:52 | 13.09917 | 80.18794 | 5566 ft | 352 kts | 343° |
| 2026-04-25 12:52 | 13.12191 | 80.18031 | 5742 ft | 330 kts | 343° |
| 2026-04-25 12:52 | 13.14309 | 80.17312 | 5848 ft | 310 kts | 344° |
| 2026-04-25 12:53 | 13.16290 | 80.16644 | 5848 ft | 295 kts | 345° |
| 2026-04-25 12:53 | 13.18194 | 80.16007 | 5842 ft | 281 kts | 345° |
| 2026-04-25 12:53 | 13.20050 | 80.15391 | 5837 ft | 279 kts | 345° |
| 2026-04-25 12:53 | 13.21939 | 80.15045 | 5805 ft | 274 kts | 359° |
| 2026-04-25 12:54 | 13.23856 | 80.14945 | 5858 ft | 277 kts | 358° |
| 2026-04-25 12:54 | 13.25783 | 80.14832 | 5819 ft | 275 kts | 358° |
| 2026-04-25 12:54 | 13.27695 | 80.14718 | 5814 ft | 275 kts | 359° |
| 2026-04-25 12:54 | 13.29603 | 80.14603 | 5807 ft | 275 kts | 359° |
| 2026-04-25 12:55 | 13.31515 | 80.14414 | 5889 ft | 280 kts | 346° |
| 2026-04-25 12:55 | 13.32706 | 80.13940 | 6445 ft | 276 kts | 338° |
| 2026-04-25 12:55 | 13.35071 | 80.12928 | 7488 ft | 281 kts | 341° |
| 2026-04-25 12:55 | 13.36887 | 80.12157 | 8294 ft | 284 kts | 340° |
| 2026-04-25 12:56 | 13.38718 | 80.11370 | 9139 ft | 284 kts | 340° |
| 2026-04-25 12:56 | 13.40537 | 80.10585 | 9916 ft | 289 kts | 340° |
| 2026-04-25 12:56 | 13.42412 | 80.09772 | 10676 ft | 293 kts | 340° |
| 2026-04-25 12:56 | 13.44307 | 80.08950 | 11500 ft | 296 kts | 340° |
| 2026-04-25 12:57 | 13.46211 | 80.08124 | 12347 ft | 300 kts | 340° |
| 2026-04-25 12:57 | 13.48149 | 80.07283 | 13210 ft | 303 kts | 340° |
| 2026-04-25 12:57 | 13.50106 | 80.06434 | 14046 ft | 306 kts | 340° |
| 2026-04-25 12:57 | 13.52068 | 80.05582 | 14746 ft | 313 kts | 340° |
| 2026-04-25 12:58 | 13.54096 | 80.04702 | 15509 ft | 318 kts | 340° |
| 2026-04-25 12:58 | 13.56161 | 80.03805 | 16173 ft | 326 kts | 339° |
| 2026-04-25 12:58 | 13.58288 | 80.02881 | 16803 ft | 334 kts | 338° |
| 2026-04-25 12:58 | 13.60451 | 80.01942 | 17502 ft | 340 kts | 337° |
| 2026-04-25 12:59 | 13.62621 | 80.00997 | 18175 ft | 345 kts | 337° |
| 2026-04-25 12:59 | 13.64870 | 80.00020 | 18688 ft | 353 kts | 337° |
| 2026-04-25 12:59 | 13.67151 | 79.99028 | 19338 ft | 354 kts | 337° |
| 2026-04-25 12:59 | 13.69429 | 79.98038 | 19984 ft | 358 kts | 336° |
| 2026-04-25 13:00 | 13.71722 | 79.97040 | 20576 ft | 362 kts | 336° |
| 2026-04-25 13:00 | 13.72506 | 79.96699 | 20801 ft | 362 kts | 336° |
| 2026-04-25 13:00 | 13.76398 | 79.95006 | 21819 ft | 367 kts | 336° |
| 2026-04-25 13:00 | 13.78729 | 79.93992 | 22471 ft | 368 kts | 336° |
| 2026-04-25 13:01 | 13.81105 | 79.92957 | 23047 ft | 372 kts | 336° |
| 2026-04-25 13:01 | 13.83512 | 79.91910 | 23543 ft | 376 kts | 336° |
| 2026-04-25 13:01 | 13.85927 | 79.90857 | 24010 ft | 379 kts | 335° |
| 2026-04-25 13:01 | 13.88384 | 79.89787 | 24390 ft | 385 kts | 335° |
| 2026-04-25 13:02 | 13.90815 | 79.88729 | 24930 ft | 385 kts | 335° |
| 2026-04-25 13:02 | 13.93308 | 79.87642 | 25352 ft | 389 kts | 335° |
| 2026-04-25 13:02 | 13.95799 | 79.86556 | 25853 ft | 390 kts | 335° |
| 2026-04-25 13:02 | 13.98315 | 79.85459 | 26261 ft | 394 kts | 335° |
| 2026-04-25 13:03 | 14.00851 | 79.84353 | 26686 ft | 397 kts | 335° |
| 2026-04-25 13:03 | 14.03407 | 79.83238 | 27139 ft | 399 kts | 335° |
| 2026-04-25 13:03 | 14.05947 | 79.82130 | 27550 ft | 402 kts | 335° |
| 2026-04-25 13:03 | 14.08540 | 79.80998 | 27964 ft | 405 kts | 334° |
| 2026-04-25 13:04 | 14.11142 | 79.79862 | 28377 ft | 408 kts | 334° |
| 2026-04-25 13:04 | 14.13769 | 79.78716 | 28774 ft | 411 kts | 334° |
| 2026-04-25 13:04 | 14.16417 | 79.77559 | 29155 ft | 414 kts | 334° |
| 2026-04-25 13:04 | 14.19051 | 79.76408 | 29548 ft | 417 kts | 334° |
| 2026-04-25 13:05 | 14.21733 | 79.75236 | 29930 ft | 420 kts | 334° |
| 2026-04-25 13:05 | 14.24431 | 79.74057 | 30256 ft | 423 kts | 334° |
| 2026-04-25 13:05 | 14.27152 | 79.72868 | 30590 ft | 425 kts | 334° |
| 2026-04-25 13:05 | 14.29885 | 79.71672 | 30916 ft | 427 kts | 334° |
| 2026-04-25 13:06 | 14.32633 | 79.70470 | 31243 ft | 429 kts | 334° |
| 2026-04-25 13:06 | 14.34458 | 79.69672 | 31457 ft | 431 kts | 334° |
| 2026-04-25 13:06 | 14.38140 | 79.68061 | 31883 ft | 434 kts | 334° |
| 2026-04-25 13:06 | 14.40930 | 79.66839 | 32192 ft | 436 kts | 334° |
| 2026-04-25 13:07 | 14.43733 | 79.65612 | 32502 ft | 439 kts | 334° |
| 2026-04-25 13:07 | 14.46552 | 79.64377 | 32813 ft | 441 kts | 334° |
| 2026-04-25 13:07 | 14.49382 | 79.63137 | 33114 ft | 443 kts | 334° |
| 2026-04-25 13:07 | 14.51269 | 79.62310 | 33316 ft | 445 kts | 334° |
| 2026-04-25 13:08 | 14.55108 | 79.60627 | 33713 ft | 448 kts | 334° |
| 2026-04-25 13:08 | 14.57016 | 79.59790 | 33806 ft | 451 kts | 334° |
| 2026-04-25 13:08 | 14.62813 | 79.57248 | 33802 ft | 455 kts | 334° |
| 2026-04-25 13:09 | 14.68642 | 79.54690 | 33809 ft | 455 kts | 334° |
| 2026-04-25 13:09 | 14.74483 | 79.52124 | 33799 ft | 454 kts | 333° |
| 2026-04-25 13:10 | 14.80283 | 79.49576 | 33808 ft | 457 kts | 333° |
| 2026-04-25 13:10 | 14.86250 | 79.46952 | 33809 ft | 472 kts | 334° |
| 2026-04-25 13:11 | 14.92340 | 79.44273 | 33800 ft | 480 kts | 334° |
| 2026-04-25 13:11 | 14.98462 | 79.41565 | 33806 ft | 480 kts | 333° |
| 2026-04-25 13:12 | 15.04597 | 79.38815 | 33811 ft | 480 kts | 333° |
| 2026-04-25 13:12 | 15.09696 | 79.36532 | 33806 ft | 480 kts | 333° |
| 2026-04-25 13:13 | 15.16874 | 79.33316 | 33813 ft | 480 kts | 333° |
| 2026-04-25 13:13 | 15.22998 | 79.30570 | 33808 ft | 480 kts | 333° |
| 2026-04-25 13:14 | 15.25987 | 79.29230 | 33840 ft | 462 kts | 333° |
| 2026-04-25 13:14 | 15.28911 | 79.27918 | 33829 ft | 456 kts | 333° |
| 2026-04-25 13:14 | 15.34749 | 79.25298 | 33815 ft | 454 kts | 333° |
| 2026-04-25 13:15 | 15.40529 | 79.22702 | 33833 ft | 454 kts | 333° |
| 2026-04-25 13:15 | 15.46335 | 79.20094 | 33825 ft | 452 kts | 333° |
| 2026-04-25 13:16 | 15.52091 | 79.17528 | 33829 ft | 453 kts | 333° |
| 2026-04-25 13:16 | 15.57897 | 79.14936 | 33832 ft | 453 kts | 333° |
| 2026-04-25 13:17 | 15.63689 | 79.12349 | 33839 ft | 453 kts | 333° |
| 2026-04-25 13:17 | 15.66529 | 79.11081 | 33662 ft | 444 kts | 333° |
| 2026-04-25 13:17 | 15.69368 | 79.09812 | 33034 ft | 445 kts | 333° |
| 2026-04-25 13:18 | 15.72219 | 79.08538 | 32348 ft | 447 kts | 333° |
| 2026-04-25 13:18 | 15.75075 | 79.07260 | 31817 ft | 443 kts | 333° |
| 2026-04-25 13:18 | 15.77874 | 79.06008 | 31412 ft | 429 kts | 333° |
| 2026-04-25 13:18 | 15.80570 | 79.04801 | 31072 ft | 416 kts | 333° |
| 2026-04-25 13:19 | 15.83196 | 79.03626 | 30652 ft | 405 kts | 333° |
| 2026-04-25 13:19 | 15.85759 | 79.02478 | 30185 ft | 397 kts | 333° |
| 2026-04-25 13:19 | 15.88255 | 79.01361 | 29719 ft | 390 kts | 334° |
| 2026-04-25 13:19 | 15.89897 | 79.00625 | 29398 ft | 384 kts | 334° |
| 2026-04-25 13:20 | 15.93154 | 78.99164 | 28845 ft | 382 kts | 333° |
| 2026-04-25 13:20 | 15.95624 | 78.98057 | 28475 ft | 387 kts | 334° |
| 2026-04-25 13:20 | 15.98078 | 78.96956 | 28073 ft | 390 kts | 334° |
| 2026-04-25 13:20 | 16.00562 | 78.95842 | 27666 ft | 389 kts | 334° |
| 2026-04-25 13:21 | 16.03047 | 78.94728 | 27286 ft | 387 kts | 334° |
| 2026-04-25 13:21 | 16.05524 | 78.93616 | 26859 ft | 386 kts | 334° |
| 2026-04-25 13:21 | 16.05808 | 78.93489 | 26811 ft | 386 kts | 333° |
| 2026-04-25 13:21 | 16.07948 | 78.92528 | 26468 ft | 385 kts | 334° |
| 2026-04-25 13:22 | 16.10409 | 78.91423 | 26069 ft | 384 kts | 334° |
| 2026-04-25 13:22 | 16.12869 | 78.90318 | 25674 ft | 383 kts | 334° |
| 2026-04-25 13:22 | 16.15306 | 78.89224 | 25279 ft | 382 kts | 334° |
| 2026-04-25 13:23 | 16.19148 | 78.87497 | 24652 ft | 380 kts | 334° |
| 2026-04-25 13:23 | 16.21579 | 78.86404 | 24267 ft | 380 kts | 334° |
| 2026-04-25 13:23 | 16.24007 | 78.85312 | 23862 ft | 379 kts | 334° |
| 2026-04-25 13:23 | 16.26435 | 78.84220 | 23464 ft | 379 kts | 334° |
| 2026-04-25 13:24 | 16.28854 | 78.83132 | 22992 ft | 378 kts | 334° |
| 2026-04-25 13:24 | 16.31236 | 78.82061 | 22597 ft | 376 kts | 334° |
| 2026-04-25 13:24 | 16.33635 | 78.80981 | 22182 ft | 374 kts | 334° |
| 2026-04-25 13:24 | 16.36014 | 78.79910 | 21808 ft | 371 kts | 334° |
| 2026-04-25 13:25 | 16.38376 | 78.78846 | 21406 ft | 365 kts | 334° |
| 2026-04-25 13:25 | 16.40667 | 78.77814 | 21046 ft | 353 kts | 334° |
| 2026-04-25 13:25 | 16.42882 | 78.76815 | 20693 ft | 342 kts | 334° |
| 2026-04-25 13:25 | 16.45036 | 78.75845 | 20341 ft | 331 kts | 334° |
| 2026-04-25 13:26 | 16.47095 | 78.74916 | 20011 ft | 321 kts | 334° |
| 2026-04-25 13:26 | 16.49126 | 78.74000 | 19681 ft | 313 kts | 334° |
| 2026-04-25 13:26 | 16.51134 | 78.73095 | 19362 ft | 318 kts | 334° |
| 2026-04-25 13:26 | 16.53168 | 78.72177 | 19029 ft | 323 kts | 334° |
| 2026-04-25 13:27 | 16.55240 | 78.71243 | 18690 ft | 324 kts | 335° |
| 2026-04-25 13:27 | 16.57302 | 78.70312 | 18354 ft | 322 kts | 335° |
| 2026-04-25 13:27 | 16.59354 | 78.69386 | 17992 ft | 319 kts | 335° |
| 2026-04-25 13:27 | 16.61390 | 78.68466 | 17625 ft | 317 kts | 335° |
| 2026-04-25 13:28 | 16.63409 | 78.67552 | 17251 ft | 315 kts | 335° |
| 2026-04-25 13:28 | 16.64748 | 78.66945 | 17031 ft | 315 kts | 335° |
| 2026-04-25 13:28 | 16.67408 | 78.65740 | 16611 ft | 313 kts | 335° |
| 2026-04-25 13:28 | 16.69410 | 78.64832 | 16284 ft | 312 kts | 335° |
| 2026-04-25 13:29 | 16.71409 | 78.63927 | 15956 ft | 312 kts | 335° |
| 2026-04-25 13:29 | 16.73407 | 78.63022 | 15634 ft | 312 kts | 336° |
| 2026-04-25 13:29 | 16.75374 | 78.62130 | 15308 ft | 310 kts | 336° |
| 2026-04-25 13:30 | 16.79317 | 78.60342 | 14660 ft | 307 kts | 336° |
| 2026-04-25 13:30 | 16.81277 | 78.59454 | 14335 ft | 306 kts | 336° |
| 2026-04-25 13:30 | 16.83224 | 78.58570 | 14016 ft | 305 kts | 336° |
| 2026-04-25 13:31 | 16.87077 | 78.56822 | 13343 ft | 303 kts | 337° |
| 2026-04-25 13:31 | 16.89010 | 78.55945 | 12998 ft | 301 kts | 337° |
| 2026-04-25 13:31 | 16.90933 | 78.55071 | 12671 ft | 300 kts | 337° |
| 2026-04-25 13:31 | 16.92848 | 78.54201 | 12353 ft | 298 kts | 337° |
| 2026-04-25 13:32 | 16.94721 | 78.53349 | 12041 ft | 297 kts | 338° |
| 2026-04-25 13:32 | 16.96616 | 78.52488 | 11728 ft | 295 kts | 338° |
| 2026-04-25 13:32 | 16.98501 | 78.51632 | 11407 ft | 294 kts | 338° |
| 2026-04-25 13:32 | 17.00376 | 78.50779 | 11090 ft | 293 kts | 338° |
| 2026-04-25 13:33 | 17.02256 | 78.49924 | 10761 ft | 293 kts | 338° |
| 2026-04-25 13:33 | 17.04103 | 78.49082 | 10454 ft | 292 kts | 339° |
| 2026-04-25 13:33 | 17.05967 | 78.48233 | 10154 ft | 292 kts | 339° |
| 2026-04-25 13:33 | 17.07834 | 78.47385 | 9849 ft | 291 kts | 338° |
| 2026-04-25 13:34 | 17.09693 | 78.46537 | 9507 ft | 290 kts | 338° |
| 2026-04-25 13:34 | 17.11547 | 78.45689 | 9183 ft | 289 kts | 337° |
| 2026-04-25 13:34 | 17.13165 | 78.44499 | 8810 ft | 292 kts | 312° |
| 2026-04-25 13:34 | 17.14124 | 78.42645 | 8464 ft | 293 kts | 285° |
| 2026-04-25 13:35 | 17.14275 | 78.40531 | 8163 ft | 291 kts | 269° |
| 2026-04-25 13:35 | 17.14228 | 78.38424 | 7867 ft | 289 kts | 269° |
| 2026-04-25 13:35 | 17.14188 | 78.36316 | 7542 ft | 289 kts | 269° |
| 2026-04-25 13:35 | 17.14146 | 78.34213 | 7223 ft | 289 kts | 269° |
| 2026-04-25 13:36 | 17.14104 | 78.32144 | 7020 ft | 284 kts | 269° |
| 2026-04-25 13:36 | 17.14063 | 78.30108 | 6871 ft | 276 kts | 269° |
| 2026-04-25 13:36 | 17.14022 | 78.28120 | 6731 ft | 268 kts | 269° |
| 2026-04-25 13:36 | 17.14042 | 78.26213 | 6555 ft | 257 kts | 280° |
| 2026-04-25 13:37 | 17.14745 | 78.24555 | 6310 ft | 246 kts | 312° |
| 2026-04-25 13:37 | 17.16061 | 78.23548 | 6113 ft | 231 kts | 340° |
| 2026-04-25 13:37 | 17.17551 | 78.23032 | 5983 ft | 221 kts | 344° |
| 2026-04-25 13:37 | 17.19054 | 78.22585 | 5858 ft | 228 kts | 355° |
| 2026-04-25 13:38 | 17.20611 | 78.22781 | 5621 ft | 225 kts | 26° |
| 2026-04-25 13:38 | 17.21833 | 78.23750 | 5338 ft | 221 kts | 55° |
| 2026-04-25 13:38 | 17.22501 | 78.25187 | 5026 ft | 219 kts | 76° |
| 2026-04-25 13:38 | 17.22701 | 78.26724 | 4774 ft | 215 kts | 89° |
| 2026-04-25 13:39 | 17.22690 | 78.28293 | 4440 ft | 214 kts | 91° |
| 2026-04-25 13:39 | 17.22694 | 78.29843 | 4106 ft | 212 kts | 89° |
| 2026-04-25 13:39 | 17.22720 | 78.31329 | 3849 ft | 194 kts | 89° |
| 2026-04-25 13:39 | 17.22739 | 78.32647 | 3600 ft | 174 kts | 90° |
| 2026-04-25 13:40 | 17.22756 | 78.33884 | 3355 ft | 168 kts | 89° |
| 2026-04-25 13:40 | 17.22773 | 78.35105 | 3148 ft | 166 kts | 89° |
| 2026-04-25 13:40 | 17.22789 | 78.36285 | 2945 ft | 157 kts | 89° |
| 2026-04-25 13:40 | 17.22805 | 78.37405 | 2736 ft | 150 kts | 89° |
| 2026-04-25 13:41 | 17.22819 | 78.38462 | 2598 ft | 144 kts | 89° |
| 2026-04-25 13:41 | 17.22840 | 78.39506 | 2391 ft | 142 kts | 91° |
| 2026-04-25 13:41 | 17.22860 | 78.40535 | 2207 ft | 140 kts | 91° |
| 2026-04-25 13:41 | 17.22863 | 78.41559 | 2017 ft | 138 kts | 88° |
| 2026-04-25 13:42 | 17.22874 | 78.42473 | 1981 ft | 115 kts | 89° |
| 2026-04-25 13:42 | 17.22883 | 78.43189 | 1985 ft | 76 kts | 89° |
| 2026-04-25 13:42 | 17.22890 | 78.43668 | 1983 ft | 44 kts | 87° |
| 2026-04-25 13:42 | 17.22966 | 78.43964 | 1983 ft | 33 kts | 60° |
| 2026-04-25 13:43 | 17.23000 | 78.44022 | 1983 ft | 0 kts | 57° |
| 2026-04-25 13:43 | 17.23007 | 78.44032 | 1983 ft | 4 kts | 57° |
| 2026-04-25 13:43 | 17.23029 | 78.44068 | 1983 ft | 8 kts | 57° |
| 2026-04-25 13:44 | 17.23085 | 78.44080 | 1984 ft | 10 kts | 316° |
| 2026-04-25 13:44 | 17.23097 | 78.43992 | 1983 ft | 15 kts | 269° |
| 2026-04-25 13:44 | 17.23094 | 78.43871 | 1982 ft | 18 kts | 269° |
| 2026-04-25 13:44 | 17.23091 | 78.43730 | 1982 ft | 20 kts | 268° |
| 2026-04-25 13:45 | 17.23090 | 78.43577 | 1982 ft | 22 kts | 270° |
| 2026-04-25 13:45 | 17.23088 | 78.43405 | 1981 ft | 25 kts | 269° |
| 2026-04-25 13:45 | 17.23086 | 78.43237 | 1981 ft | 17 kts | 271° |
| 2026-04-25 13:45 | 17.23168 | 78.43161 | 1982 ft | 19 kts | 358° |
| 2026-04-25 13:46 | 17.23272 | 78.43160 | 1983 ft | 0 kts | 359° |
| 2026-04-25 13:46 | 17.23275 | 78.43160 | 1983 ft | 1 kts | 359° |
| 2026-04-25 13:46 | 17.23293 | 78.43159 | 1985 ft | 4 kts | 355° |
| 2026-04-25 13:47 | 17.23321 | 78.43144 | 1986 ft | 5 kts | 316° |
| 2026-04-25 13:47 | 17.23358 | 78.43124 | 1982 ft | 7 kts | 353° |
| 2026-04-25 13:47 | 17.23402 | 78.43123 | 1983 ft | 3 kts | 0° |
| 2026-04-25 13:47 | 17.23415 | 78.43123 | 1986 ft | 1 kts | 0° |
| 2026-04-25 13:48 | 17.23418 | 78.43123 | 1985 ft | 0 kts | 0° |